CYNACYBC

Guest
Details From CYNA - NATASHQUAN
To CYBC - BAIE COMEAU
Flight Number -
Tags generated
Created
Modified
Stats Distance 273 nm / 506 km
Max Altitude 20,400 ft / 6,218 m
Waypoints 4
Social Downloads 0
Likes 0
Share VATSIM

Download

Looking for another format? Having issues loading an existing format? Contact us
Advertisement - Login to hide

Notes

Basic altitude profile: - Ascent Rate: 2500ft/min - Ascent Speed: 250kts - Cruise Altitude: 35000ft - Cruise Speed: 420kts - Descent Rate: 1500ft/min - Descent Speed: 250kts

Route

CYNA YNA J560 YZV CYBC

ID Type Via Altitude Latitude Longitude Leg Dist Tot Dist Heading (true) Name
O CYNA APT - 0 ft / 0 m 50.19008˚ -61.78895˚ - 0 nm - NATASHQUAN
YNA VOR - 100 ft / 30 m 50.18361˚ -61.78083˚ 0 nm 0 nm 141° / 141° NATASH VOR-DME
YZV VOR J560 (AWY-HI) 20,400 ft / 6,218 m 50.23211˚ -66.27386˚ 172 nm 173 nm 273° / 269° SEPT-ILES VOR-DME
O CYBC APT - 0 ft / 0 m 49.13227˚ -68.20721˚ 100 nm 273 nm 229° / 228° BAIE COMEAU

Altitude Profile

Advertisement - Login to hide

Weather


0- 5 10 15 20 25 30 35+ Temperature / ° C

Clouds and Precipitation
Forecast for 2018-05-21 12:00 UTC. Updated 2 hours ago

Ground ~20,000 ft ~40,000 ft Winds

CYNA

Details ICAO CYNA (YNA)
Name NATASHQUAN
Region Canada
Timezone America/Montreal (UTC-4.0)
Stats Elevation 39 ft / 12 m (AMSL)
Location 50.190084° -61.788947°
Runways 1
Magnetic Variation 19.387° W

METAR

CYNA 211300Z AUTO 25009KT 9SM BKN075 BKN086 BKN110 06/01 A2968 RMK SLP054

Decode

TAF

TAF CYNA 210738Z 2108/2120 VRB03KT P6SM SKC FM210900 26008KT P6SM BKN060 BECMG 2112/2114 25012G22KT RMK FCST BASED ON AUTO OBS. NXT FCST BY 211400Z

Decode

Departure Runways

ID Width Length Bearing (true) Bearing (mag) Surface Threshold Offset Overrun Length
14 100 ft / 30 m 4,486 ft / 1,367 m 117.90° 137.29° Asphalt 0 ft / 0 m 0 ft / 0 m
32 100 ft / 30 m 4,486 ft / 1,367 m 297.91° 317.30° Asphalt 0 ft / 0 m 0 ft / 0 m

CYBC

Details ICAO CYBC (YBC)
Name BAIE COMEAU
Region Canada
Timezone America/Montreal (UTC-4.0)
Stats Elevation 71 ft / 22 m (AMSL)
Location 49.132270° -68.207207°
Runways 1
Magnetic Variation 17.788° W

METAR

CYBC 211300Z AUTO 30014G22KT 9SM CLR 12/M04 A2983 RMK SLP103

Decode

TAF

TAF CYBC 210738Z 2108/2120 23010KT P6SM SKC FM211000 27010KT P6SM FEW080 BECMG 2110/2112 28015G25KT RMK FCST BASED ON AUTO OBS. NXT FCST BY 211400Z

Decode

Destination Runways

ID Width Length Bearing (true) Bearing (mag) Surface Threshold Offset Overrun Length
10 150 ft / 46 m 5,984 ft / 1,824 m 80.50° 98.29° Asphalt 0 ft / 0 m 0 ft / 0 m
28 150 ft / 46 m 5,984 ft / 1,824 m 260.52° 278.31° Asphalt 0 ft / 0 m 0 ft / 0 m

Approach Navaids

Runway Type Ident Frequency Range Bearing (true) Bearing (mag) Slope Elevation
10 Localiser IBC 110.30 MHz 18 nm / 33 km 79.38° 97.16° - 66 ft / 20 m (AMSL)
10 Glidescope IBC 110.30 MHz 18 nm / 33 km 100.00° 117.79° 2.50° 69 ft / 21 m (AMSL)